sensor_id;sensor_type;location;lat;lon;timestamp;pressure;altitude;pressure_sealevel;temperature;humidity
78673;BME280;67988;60.086;30.354;2023-06-14T17:33:42;101734.09;;;29.63;19.77
78673;BME280;67988;60.086;30.354;2023-06-14T17:36:09;101728.66;;;29.05;20.26
78673;BME280;67988;60.086;30.354;2023-06-14T17:38:36;101726.38;;;28.96;20.79
78673;BME280;67988;60.086;30.354;2023-06-14T17:44:07;101735.69;;;28.55;21.08
78673;BME280;67988;60.086;30.354;2023-06-14T17:46:35;101736.03;;;27.67;22.06
78673;BME280;67988;60.086;30.354;2023-06-14T17:49:03;101738.47;;;27.42;22.11
78673;BME280;67988;60.086;30.354;2023-06-14T17:51:30;101740.22;;;27.09;22.48
78673;BME280;67988;60.086;30.354;2023-06-14T17:53:57;101734.47;;;26.62;23.11
78673;BME280;67988;60.086;30.354;2023-06-14T17:56:26;101734.09;;;26.38;23.56
78673;BME280;67988;60.086;30.354;2023-06-14T17:58:53;101738.28;;;25.91;24.19
78673;BME280;67988;60.086;30.354;2023-06-14T18:01:21;101742.03;;;25.69;24.49
78673;BME280;67988;60.086;30.354;2023-06-14T18:03:49;101714.22;;;25.23;25.04
78673;BME280;67988;60.086;30.354;2023-06-14T18:06:17;101747.56;;;25.10;25.19
78673;BME280;67988;60.086;30.354;2023-06-14T18:11:30;101744.16;;;24.79;25.49
78673;BME280;67988;60.086;30.354;2023-06-14T18:13:58;101736.25;;;24.40;26.57
78673;BME280;67988;60.086;30.354;2023-06-14T18:19:12;101747.84;;;24.34;26.99
78673;BME280;67988;60.086;30.354;2023-06-14T18:21:43;101745.06;;;24.42;26.50
78673;BME280;67988;60.086;30.354;2023-06-14T18:24:11;101749.97;;;24.46;26.60
78673;BME280;67988;60.086;30.354;2023-06-14T18:26:38;101754.94;;;24.43;26.65
78673;BME280;67988;60.086;30.354;2023-06-14T18:29:05;101750.13;;;24.30;26.86
78673;BME280;67988;60.086;30.354;2023-06-14T18:31:32;101752.94;;;24.37;26.69
78673;BME280;67988;60.086;30.354;2023-06-14T18:33:59;101752.22;;;24.43;26.88
78673;BME280;67988;60.086;30.354;2023-06-14T18:36:26;101754.00;;;24.50;26.83
78673;BME280;67988;60.086;30.354;2023-06-14T18:38:54;101758.00;;;24.40;26.60
78673;BME280;67988;60.086;30.354;2023-06-14T18:41:21;101759.88;;;24.39;26.99
78673;BME280;67988;60.086;30.354;2023-06-14T18:43:48;101754.81;;;24.36;26.26
78673;BME280;67988;60.086;30.354;2023-06-14T18:49:03;101765.53;;;23.92;27.21
78673;BME280;67988;60.086;30.354;2023-06-14T18:54:36;101766.19;;;23.32;27.43
78673;BME280;67988;60.086;30.354;2023-06-14T18:57:03;101762.91;;;23.06;28.14
78673;BME280;67988;60.086;30.354;2023-06-14T18:59:31;101766.38;;;22.76;28.45
78673;BME280;67988;60.086;30.354;2023-06-14T19:01:58;101761.31;;;22.57;28.77
78673;BME280;67988;60.086;30.354;2023-06-14T19:04:25;101760.81;;;22.37;29.31
78673;BME280;67988;60.086;30.354;2023-06-14T19:06:52;101761.53;;;22.15;29.36
78673;BME280;67988;60.086;30.354;2023-06-14T19:09:19;101769.81;;;22.05;29.65
78673;BME280;67988;60.086;30.354;2023-06-14T19:12:08;101772.47;;;21.89;29.73
78673;BME280;67988;60.086;30.354;2023-06-14T19:14:54;101766.19;;;21.80;30.24
78673;BME280;67988;60.086;30.354;2023-06-14T19:17:21;101770.59;;;21.73;30.02
78673;BME280;67988;60.086;30.354;2023-06-14T19:19:48;101773.44;;;21.63;29.78
78673;BME280;67988;60.086;30.354;2023-06-14T19:22:15;101773.75;;;21.52;29.78
78673;BME280;67988;60.086;30.354;2023-06-14T19:27:48;101771.66;;;21.30;30.30
78673;BME280;67988;60.086;30.354;2023-06-14T19:30:15;101778.53;;;21.16;30.49
78673;BME280;67988;60.086;30.354;2023-06-14T19:32:42;101765.06;;;20.99;31.07
78673;BME280;67988;60.086;30.354;2023-06-14T19:35:10;101781.94;;;20.93;32.69
78673;BME280;67988;60.086;30.354;2023-06-14T19:37:37;101786.75;;;20.81;33.51
78673;BME280;67988;60.086;30.354;2023-06-14T19:42:52;101790.34;;;20.38;36.38
78673;BME280;67988;60.086;30.354;2023-06-14T19:45:19;101780.53;;;20.19;37.16
78673;BME280;67988;60.086;30.354;2023-06-14T19:47:46;101796.59;;;20.03;37.64
78673;BME280;67988;60.086;30.354;2023-06-14T19:50:14;101800.56;;;19.91;38.04
78673;BME280;67988;60.086;30.354;2023-06-14T19:52:41;101794.66;;;19.78;38.36
78673;BME280;67988;60.086;30.354;2023-06-14T19:55:08;101794.16;;;19.64;38.63
78673;BME280;67988;60.086;30.354;2023-06-14T19:57:35;101781.38;;;19.39;39.25
78673;BME280;67988;60.086;30.354;2023-06-14T20:05:38;101796.41;;;19.14;40.75
78673;BME280;67988;60.086;30.354;2023-06-14T20:08:06;101788.25;;;18.97;40.89
78673;BME280;67988;60.086;30.354;2023-06-14T20:10:52;101803.19;;;18.91;41.74
78673;BME280;67988;60.086;30.354;2023-06-14T20:13:38;101796.25;;;18.79;42.37
78673;BME280;67988;60.086;30.354;2023-06-14T20:16:06;101805.38;;;18.68;43.44
78673;BME280;67988;60.086;30.354;2023-06-14T20:18:33;101807.63;;;18.54;42.96
78673;BME280;67988;60.086;30.354;2023-06-14T20:21:02;101800.28;;;18.27;43.94
78673;BME280;67988;60.086;30.354;2023-06-14T20:23:29;101811.34;;;18.14;44.60
78673;BME280;67988;60.086;30.354;2023-06-14T20:25:56;101816.03;;;18.03;45.00
78673;BME280;67988;60.086;30.354;2023-06-14T20:28:24;101809.91;;;18.01;44.73
78673;BME280;67988;60.086;30.354;2023-06-14T20:30:51;101802.25;;;17.96;44.85
78673;BME280;67988;60.086;30.354;2023-06-14T20:33:19;101794.31;;;17.85;44.97
78673;BME280;67988;60.086;30.354;2023-06-14T20:35:46;101807.09;;;17.83;45.47
78673;BME280;67988;60.086;30.354;2023-06-14T20:41:17;101810.72;;;17.63;46.07
78673;BME280;67988;60.086;30.354;2023-06-14T20:43:44;101811.38;;;17.55;46.27
78673;BME280;67988;60.086;30.354;2023-06-14T20:46:11;101815.59;;;17.48;46.37
78673;BME280;67988;60.086;30.354;2023-06-14T20:54:50;101804.34;;;17.24;47.38
78673;BME280;67988;60.086;30.354;2023-06-14T20:57:20;101825.72;;;17.25;47.70
78673;BME280;67988;60.086;30.354;2023-06-14T20:59:47;101829.22;;;17.16;48.13
78673;BME280;67988;60.086;30.354;2023-06-14T21:02:14;101824.50;;;17.08;47.81
78673;BME280;67988;60.086;30.354;2023-06-14T21:04:43;101820.81;;;17.00;47.41
78673;BME280;67988;60.086;30.354;2023-06-14T21:07:10;101826.19;;;17.00;47.04
78673;BME280;67988;60.086;30.354;2023-06-14T21:09:38;101824.88;;;16.94;47.10
78673;BME280;67988;60.086;30.354;2023-06-14T21:12:26;101835.84;;;16.82;47.27
78673;BME280;67988;60.086;30.354;2023-06-14T21:14:53;101827.84;;;16.70;47.12
78673;BME280;67988;60.086;30.354;2023-06-14T21:17:20;101833.16;;;16.61;47.50
78673;BME280;67988;60.086;30.354;2023-06-14T21:19:47;101830.84;;;16.56;48.02
78673;BME280;67988;60.086;30.354;2023-06-14T21:22:14;101830.25;;;16.53;47.64
78673;BME280;67988;60.086;30.354;2023-06-14T21:24:41;101823.22;;;16.41;47.34
78673;BME280;67988;60.086;30.354;2023-06-14T21:27:08;101835.69;;;16.42;47.51
78673;BME280;67988;60.086;30.354;2023-06-14T21:29:36;101829.47;;;16.41;47.55
78673;BME280;67988;60.086;30.354;2023-06-14T21:32:04;101828.16;;;16.36;47.98
78673;BME280;67988;60.086;30.354;2023-06-14T21:34:31;101838.28;;;16.32;48.24
78673;BME280;67988;60.086;30.354;2023-06-14T21:36:58;101836.09;;;16.26;48.66
78673;BME280;67988;60.086;30.354;2023-06-14T21:39:25;101838.22;;;16.22;48.76
78673;BME280;67988;60.086;30.354;2023-06-14T21:41:52;101824.59;;;16.14;48.89
78673;BME280;67988;60.086;30.354;2023-06-14T21:44:20;101815.84;;;16.01;49.71
78673;BME280;67988;60.086;30.354;2023-06-14T21:46:48;101829.84;;;16.05;50.27
78673;BME280;67988;60.086;30.354;2023-06-14T21:49:15;101836.09;;;15.94;50.50
78673;BME280;67988;60.086;30.354;2023-06-14T21:54:28;101827.97;;;15.84;50.47
78673;BME280;67988;60.086;30.354;2023-06-14T21:56:55;101835.66;;;15.78;50.67
78673;BME280;67988;60.086;30.354;2023-06-14T22:02:32;101834.97;;;15.65;51.36
78673;BME280;67988;60.086;30.354;2023-06-14T22:05:00;101830.22;;;15.57;51.35
78673;BME280;67988;60.086;30.354;2023-06-14T22:10:14;101831.06;;;15.46;52.07
78673;BME280;67988;60.086;30.354;2023-06-14T22:12:42;101837.28;;;15.36;52.79
78673;BME280;67988;60.086;30.354;2023-06-14T22:15:10;101832.19;;;15.22;54.02
78673;BME280;67988;60.086;30.354;2023-06-14T22:17:39;101835.94;;;15.08;55.03
78673;BME280;67988;60.086;30.354;2023-06-14T22:20:08;101836.22;;;15.05;55.41
78673;BME280;67988;60.086;30.354;2023-06-14T22:22:35;101833.38;;;15.06;55.31
78673;BME280;67988;60.086;30.354;2023-06-14T22:25:06;101801.44;;;14.81;55.24
78673;BME280;67988;60.086;30.354;2023-06-14T22:27:33;101835.34;;;15.04;55.59
78673;BME280;67988;60.086;30.354;2023-06-14T22:30:02;101832.03;;;15.01;55.83
78673;BME280;67988;60.086;30.354;2023-06-14T22:32:30;101838.75;;;15.06;55.66
78673;BME280;67988;60.086;30.354;2023-06-14T22:34:59;101832.88;;;15.01;56.00
78673;BME280;67988;60.086;30.354;2023-06-14T22:40:15;101839.38;;;14.99;56.18
78673;BME280;67988;60.086;30.354;2023-06-14T22:42:43;101839.38;;;14.99;56.37
78673;BME280;67988;60.086;30.354;2023-06-14T22:45:32;101833.38;;;14.95;56.87
78673;BME280;67988;60.086;30.354;2023-06-14T22:48:20;101838.97;;;14.92;57.05
78673;BME280;67988;60.086;30.354;2023-06-14T22:50:49;101833.03;;;14.89;56.99
78673;BME280;67988;60.086;30.354;2023-06-14T22:53:17;101835.19;;;14.84;57.17
78673;BME280;67988;60.086;30.354;2023-06-14T22:55:44;101832.00;;;14.79;57.34
78673;BME280;67988;60.086;30.354;2023-06-14T22:58:11;101831.88;;;14.69;57.43
78673;BME280;67988;60.086;30.354;2023-06-14T23:00:40;101838.44;;;14.65;57.79
78673;BME280;67988;60.086;30.354;2023-06-14T23:03:12;101824.41;;;14.50;58.06
78673;BME280;67988;60.086;30.354;2023-06-14T23:05:39;101824.91;;;14.55;58.05
78673;BME280;67988;60.086;30.354;2023-06-14T23:08:08;101834.28;;;14.50;58.21
78673;BME280;67988;60.086;30.354;2023-06-14T23:10:35;101829.38;;;14.44;58.39
78673;BME280;67988;60.086;30.354;2023-06-14T23:13:24;101833.28;;;14.40;58.62
78673;BME280;67988;60.086;30.354;2023-06-14T23:18:38;101832.34;;;14.28;58.80
78673;BME280;67988;60.086;30.354;2023-06-14T23:21:05;101838.06;;;14.23;58.88
78673;BME280;67988;60.086;30.354;2023-06-14T23:23:34;101802.31;;;14.01;58.72
78673;BME280;67988;60.086;30.354;2023-06-14T23:26:01;101839.38;;;14.18;58.85
78673;BME280;67988;60.086;30.354;2023-06-14T23:28:31;101831.78;;;14.12;59.05
78673;BME280;67988;60.086;30.354;2023-06-14T23:31:17;101831.91;;;14.10;59.73
78673;BME280;67988;60.086;30.354;2023-06-14T23:33:46;101829.78;;;14.03;59.65
78673;BME280;67988;60.086;30.354;2023-06-14T23:36:33;101834.63;;;13.98;59.91
78673;BME280;67988;60.086;30.354;2023-06-14T23:39:02;101835.94;;;13.92;60.05
78673;BME280;67988;60.086;30.354;2023-06-14T23:41:30;101843.19;;;13.79;60.74
78673;BME280;67988;60.086;30.354;2023-06-14T23:43:57;101813.88;;;13.65;60.50
78673;BME280;67988;60.086;30.354;2023-06-14T23:46:25;101838.00;;;13.89;60.40
78673;BME280;67988;60.086;30.354;2023-06-14T23:48:55;101841.66;;;13.75;61.14
78673;BME280;67988;60.086;30.354;2023-06-14T23:51:22;101837.19;;;13.75;61.06
78673;BME280;67988;60.086;30.354;2023-06-14T23:53:50;101834.28;;;13.78;60.96
78673;BME280;67988;60.086;30.354;2023-06-14T23:56:19;101840.50;;;13.79;60.77
